createdAt,value
2022-11-24T00:00:22.935Z,1.27
2022-11-24T00:05:44.816Z,1.25
2022-11-24T00:10:46.627Z,1.24
2022-11-24T00:15:48.370Z,1.21
2022-11-24T00:20:53.348Z,1.19
2022-11-24T00:25:55.434Z,1.13
2022-11-24T00:30:57.340Z,1.12
2022-11-24T00:36:00.430Z,1.15
2022-11-24T00:41:02.170Z,1.17
2022-11-24T00:46:04.379Z,1.14
2022-11-24T00:51:10.060Z,1.11
2022-11-24T00:56:12.123Z,1.10
2022-11-24T01:01:18.077Z,1.11
2022-11-24T01:06:26.548Z,1.06
2022-11-24T01:11:50.595Z,0.99
2022-11-24T01:16:52.686Z,0.92
2022-11-24T01:21:54.523Z,0.93
2022-11-24T01:26:56.300Z,0.85
2022-11-24T01:31:58.027Z,0.77
2022-11-24T01:36:59.780Z,0.70
2022-11-24T01:42:01.653Z,0.70
2022-11-24T01:47:12.295Z,0.66
2022-11-24T01:52:33.006Z,0.64
2022-11-24T01:57:59.346Z,0.62
2022-11-24T02:03:01.280Z,0.62
2022-11-24T02:08:04.619Z,0.65
2022-11-24T02:13:06.425Z,0.66
2022-11-24T02:18:08.214Z,0.64
2022-11-24T02:23:42.011Z,0.63
2022-11-24T02:28:43.864Z,0.65
2022-11-24T02:33:46.616Z,0.67
2022-11-24T02:38:48.894Z,0.69
2022-11-24T02:44:01.343Z,0.71
2022-11-24T02:49:03.141Z,0.71
2022-11-24T02:54:04.900Z,0.73
2022-11-24T02:59:06.674Z,0.69
2022-11-24T03:04:08.472Z,0.65
2022-11-24T03:09:11.027Z,0.65
2022-11-24T03:14:12.908Z,0.70
2022-11-24T03:19:14.642Z,0.74
2022-11-24T03:24:16.468Z,0.75
2022-11-24T03:29:18.352Z,0.72
2022-11-24T03:34:20.124Z,0.70
2022-11-24T03:39:21.947Z,0.74
2022-11-24T03:44:23.701Z,0.79
2022-11-24T03:49:25.467Z,0.80
2022-11-24T03:54:27.530Z,0.76
2022-11-24T03:59:29.298Z,0.71
2022-11-24T04:04:31.188Z,0.68
2022-11-24T04:09:33.040Z,0.74
2022-11-24T04:14:35.586Z,0.73
2022-11-24T04:19:37.610Z,0.69
2022-11-24T04:24:39.343Z,0.68
2022-11-24T04:29:41.059Z,0.71
2022-11-24T04:34:43.344Z,0.73
2022-11-24T04:39:45.956Z,0.74
2022-11-24T04:44:47.704Z,0.74
2022-11-24T04:49:49.925Z,0.71
2022-11-24T04:54:52.302Z,0.69
2022-11-24T04:59:54.665Z,0.72
2022-11-24T05:04:56.423Z,0.74
2022-11-24T05:10:17.027Z,0.75
2022-11-24T05:15:18.687Z,0.72
2022-11-24T05:20:21.017Z,0.73
2022-11-24T05:25:22.685Z,0.77
2022-11-24T05:30:24.638Z,0.80
2022-11-24T05:35:26.538Z,0.79
2022-11-24T05:40:28.196Z,0.75
2022-11-24T05:45:29.915Z,0.74
2022-11-24T05:50:32.101Z,0.63
2022-11-24T05:55:35.001Z,0.58
2022-11-24T06:00:36.938Z,0.54
2022-11-24T06:05:38.847Z,0.56
2022-11-24T06:10:40.484Z,0.62
2022-11-24T06:15:42.129Z,0.68
2022-11-24T06:20:53.139Z,0.79
2022-11-24T06:26:06.056Z,0.82
2022-11-24T06:31:10.110Z,0.80
2022-11-24T06:36:14.377Z,0.78
2022-11-24T06:41:16.385Z,0.86
2022-11-24T06:46:18.563Z,0.93
2022-11-24T06:51:20.232Z,0.96
2022-11-24T06:56:22.108Z,0.91
2022-11-24T07:01:27.665Z,0.89
2022-11-24T07:06:29.382Z,0.91
2022-11-24T07:11:30.969Z,0.87
2022-11-24T07:16:33.151Z,0.89
2022-11-24T07:21:34.809Z,0.95
2022-11-24T07:26:37.431Z,1.05
2022-11-24T07:31:39.374Z,1.20
2022-11-24T07:36:42.334Z,1.32
2022-11-24T07:41:43.959Z,1.37
2022-11-24T07:46:46.062Z,1.36
2022-11-24T07:51:47.772Z,1.34
2022-11-24T07:56:49.369Z,1.38
2022-11-24T08:01:51.579Z,1.40
2022-11-24T08:06:53.313Z,1.44
2022-11-24T08:11:54.959Z,1.48
2022-11-24T08:16:57.994Z,1.53
2022-11-24T08:22:00.419Z,1.60
2022-11-24T08:27:02.436Z,1.59
2022-11-24T08:32:04.581Z,1.57
2022-11-24T08:37:06.349Z,1.61
2022-11-24T08:42:08.003Z,1.68
2022-11-24T08:47:09.664Z,1.80
2022-11-24T08:52:11.262Z,1.89
2022-11-24T08:57:21.454Z,1.92
2022-11-24T09:02:23.680Z,1.89
2022-11-24T09:07:25.369Z,1.84
2022-11-24T09:12:27.723Z,1.77
2022-11-24T09:17:29.333Z,1.72
2022-11-24T09:22:31.647Z,1.62
2022-11-24T09:27:33.301Z,1.60
2022-11-24T09:32:34.925Z,1.70
2022-11-24T09:37:36.597Z,1.75
2022-11-24T09:42:45.237Z,1.79
2022-11-24T09:48:02.591Z,1.81
2022-11-24T09:53:31.767Z,1.86
2022-11-24T09:58:51.190Z,1.86
2022-11-24T10:03:54.270Z,1.90
2022-11-24T10:09:30.526Z,2.00
2022-11-24T10:15:40.212Z,2.07
2022-11-24T10:21:05.240Z,2.15
2022-11-24T10:26:30.533Z,2.12
2022-11-24T10:31:38.694Z,2.04
2022-11-24T10:36:46.668Z,2.08
2022-11-24T10:42:42.127Z,2.18
2022-11-24T10:47:45.095Z,2.20
2022-11-24T10:53:07.607Z,2.21
2022-11-24T10:58:16.647Z,2.14
2022-11-24T11:03:26.466Z,2.02
2022-11-24T11:08:31.405Z,1.99
2022-11-24T11:13:33.073Z,2.01
2022-11-24T11:18:35.520Z,2.06
2022-11-24T11:23:45.496Z,2.05
2022-11-24T11:34:34.647Z,2.02
2022-11-24T11:39:45.382Z,2.09
2022-11-24T11:45:05.001Z,2.22
2022-11-24T11:50:24.018Z,2.24
2022-11-24T11:55:50.203Z,2.19
2022-11-24T12:01:36.887Z,2.15
2022-11-24T12:06:53.899Z,2.09
2022-11-24T12:12:45.836Z,2.07
2022-11-24T12:18:57.100Z,2.06
2022-11-24T12:24:37.212Z,2.07
2022-11-24T12:30:09.093Z,2.07
2022-11-24T12:35:35.264Z,1.90
2022-11-24T12:41:33.528Z,1.81
2022-11-24T12:46:40.295Z,1.71
2022-11-24T12:51:47.653Z,1.61
2022-11-24T12:57:12.905Z,1.57
2022-11-24T13:02:39.289Z,1.59
2022-11-24T13:07:57.007Z,1.58
2022-11-24T13:13:03.379Z,1.59
2022-11-24T13:18:44.645Z,1.64
2022-11-24T13:29:33.790Z,1.86
2022-11-24T13:34:38.313Z,1.85
2022-11-24T13:40:02.987Z,1.79
2022-11-24T13:45:28.888Z,1.74
2022-11-24T13:50:50.754Z,1.69
2022-11-24T13:56:00.368Z,1.59
2022-11-24T14:01:03.474Z,1.57
2022-11-24T14:06:05.539Z,1.58
2022-11-24T14:11:18.074Z,1.59
2022-11-24T14:16:23.149Z,1.61
2022-11-24T14:21:43.764Z,1.61
2022-11-24T14:26:46.898Z,1.51
2022-11-24T14:31:57.700Z,1.45
2022-11-24T14:37:00.870Z,1.41
2022-11-24T14:42:25.070Z,1.33
2022-11-24T14:47:43.839Z,1.28
2022-11-24T14:52:55.869Z,1.31
2022-11-24T14:57:59.554Z,1.37
2022-11-24T15:03:01.231Z,1.45
2022-11-24T15:08:03.205Z,1.48
2022-11-24T15:13:22.129Z,1.47
2022-11-24T15:18:34.783Z,1.41
2022-11-24T15:23:37.334Z,1.34
2022-11-24T15:28:39.972Z,1.30
2022-11-24T15:33:41.857Z,1.25
2022-11-24T15:38:43.465Z,1.19
2022-11-24T15:43:45.362Z,1.17
2022-11-24T15:48:47.044Z,1.17
2022-11-24T15:54:00.391Z,1.21
2022-11-24T15:59:03.897Z,1.27
2022-11-24T16:04:05.574Z,1.34
2022-11-24T16:09:15.801Z,1.38
2022-11-24T16:14:17.489Z,1.40
2022-11-24T16:19:19.123Z,1.35
2022-11-24T16:24:20.781Z,1.32
2022-11-24T16:29:24.099Z,1.24
2022-11-24T16:34:25.678Z,1.22
2022-11-24T16:39:27.312Z,1.23
2022-11-24T16:44:29.038Z,1.23
2022-11-24T16:49:30.726Z,1.24
2022-11-24T16:54:32.585Z,1.21
2022-11-24T16:59:34.687Z,1.22
2022-11-24T17:04:36.566Z,1.24
2022-11-24T17:09:40.801Z,1.21
2022-11-24T17:14:44.345Z,1.18
2022-11-24T17:19:51.761Z,1.16
2022-11-24T17:24:53.382Z,1.14
2022-11-24T17:29:54.997Z,1.12
2022-11-24T17:34:56.592Z,1.18
2022-11-24T17:40:20.640Z,1.31
2022-11-24T17:45:20.229Z,1.39
2022-11-24T17:50:25.780Z,1.38
2022-11-24T17:55:27.850Z,1.37
2022-11-24T18:00:29.725Z,1.27
2022-11-24T18:05:36.100Z,1.21
2022-11-24T18:10:38.248Z,1.19
2022-11-24T18:15:40.493Z,1.18
2022-11-24T18:20:42.085Z,1.21
2022-11-24T18:25:43.686Z,1.22
2022-11-24T18:30:45.424Z,1.31
2022-11-24T18:36:01.214Z,1.42
2022-11-24T18:41:04.751Z,1.47
2022-11-24T18:46:10.957Z,1.51
2022-11-24T18:51:17.067Z,1.53
2022-11-24T18:56:18.728Z,1.52
2022-11-24T19:01:28.154Z,1.42
2022-11-24T19:06:33.140Z,1.37
2022-11-24T19:11:38.407Z,1.38
2022-11-24T19:16:41.052Z,1.35
2022-11-24T19:21:42.847Z,1.43
2022-11-24T19:26:44.776Z,1.54
2022-11-24T19:31:47.308Z,1.61
2022-11-24T19:36:48.993Z,1.72
2022-11-24T19:41:52.424Z,1.82
2022-11-24T19:46:54.045Z,1.82
2022-11-24T19:51:55.646Z,1.70
2022-11-24T19:56:57.251Z,1.65
2022-11-24T20:01:59.522Z,1.58
2022-11-24T20:07:01.295Z,1.53
2022-11-24T20:12:03.416Z,1.55
2022-11-24T20:17:06.093Z,1.66
2022-11-24T20:22:07.698Z,1.80
2022-11-24T20:27:09.440Z,1.90
2022-11-24T20:32:16.787Z,2.03
2022-11-24T20:37:18.367Z,2.07
2022-11-24T20:42:20.031Z,2.09
2022-11-24T20:47:21.638Z,2.08
2022-11-24T20:52:23.244Z,2.02
2022-11-24T20:57:24.846Z,1.95
2022-11-24T21:02:26.672Z,1.88
2022-11-24T21:07:28.513Z,1.88
2022-11-24T21:12:30.147Z,1.94
2022-11-24T21:17:31.997Z,1.90
2022-11-24T21:22:34.840Z,1.82
2022-11-24T21:27:36.440Z,1.76
2022-11-24T21:32:38.051Z,1.66
2022-11-24T21:37:39.674Z,1.58
2022-11-24T21:42:41.286Z,1.50
2022-11-24T21:47:45.771Z,1.37
2022-11-24T21:52:47.393Z,1.30
2022-11-24T21:57:48.955Z,1.34
2022-11-24T22:02:50.609Z,1.45
2022-11-24T22:07:52.557Z,1.61
2022-11-24T22:12:54.641Z,1.73
2022-11-24T22:17:57.365Z,1.81
2022-11-24T22:22:58.977Z,1.86
2022-11-24T22:28:00.584Z,1.89
2022-11-24T22:33:02.175Z,1.89
2022-11-24T22:38:03.738Z,1.89
2022-11-24T22:43:05.395Z,1.88
2022-11-24T22:48:07.007Z,1.95
2022-11-24T22:53:08.733Z,2.04
2022-11-24T22:58:10.327Z,2.16
2022-11-24T23:03:12.121Z,2.22
2022-11-24T23:08:13.910Z,2.23
2022-11-24T23:13:15.557Z,2.17
2022-11-24T23:18:17.149Z,2.14
2022-11-24T23:23:18.741Z,2.10
2022-11-24T23:28:20.349Z,2.12
2022-11-24T23:33:21.947Z,2.21
2022-11-24T23:38:29.403Z,2.29
2022-11-24T23:43:32.938Z,2.32
2022-11-24T23:48:35.287Z,2.32
2022-11-24T23:53:37.020Z,2.31
2022-11-24T23:58:38.752Z,2.27
